createdAt,value
2018-05-04T00:04:51.833Z,15.20
2018-05-04T00:09:56.164Z,15.20
2018-05-04T00:14:59.180Z,15.10
2018-05-04T00:20:02.149Z,15.10
2018-05-04T00:25:06.075Z,15.00
2018-05-04T00:30:10.040Z,15.00
2018-05-04T00:35:13.165Z,15.00
2018-05-04T00:40:16.400Z,14.90
2018-05-04T00:45:19.373Z,14.90
2018-05-04T00:50:24.753Z,14.90
2018-05-04T00:55:28.660Z,14.80
2018-05-04T01:00:32.262Z,14.80
2018-05-04T01:05:36.145Z,14.80
2018-05-04T01:10:39.512Z,14.80
2018-05-04T01:15:42.462Z,14.70
2018-05-04T01:20:45.271Z,14.70
2018-05-04T01:25:49.318Z,14.70
2018-05-04T01:30:53.026Z,14.70
2018-05-04T01:35:55.703Z,14.60
2018-05-04T01:40:59.035Z,14.60
2018-05-04T01:46:03.311Z,14.60
2018-05-04T01:51:07.251Z,14.60
2018-05-04T01:56:10.575Z,14.60
2018-05-04T02:01:13.880Z,14.50
2018-05-04T02:06:17.290Z,14.50
2018-05-04T02:11:20.766Z,14.50
2018-05-04T02:16:25.578Z,14.40
2018-05-04T02:21:28.262Z,14.40
2018-05-04T02:26:32.490Z,14.40
2018-05-04T02:31:35.264Z,14.40
2018-05-04T02:36:37.797Z,14.40
2018-05-04T02:41:41.841Z,14.30
2018-05-04T02:46:44.702Z,14.30
2018-05-04T02:51:48.859Z,14.30
2018-05-04T02:56:51.842Z,14.30
2018-05-04T03:01:55.128Z,14.30
2018-05-04T03:06:59.628Z,14.30
2018-05-04T03:12:03.096Z,14.30
2018-05-04T03:17:08.448Z,14.20
2018-05-04T03:22:12.746Z,14.20
2018-05-04T03:27:15.587Z,14.20
2018-05-04T03:32:19.054Z,14.10
2018-05-04T03:37:23.931Z,14.10
2018-05-04T03:42:26.748Z,14.10
2018-05-04T03:47:30.993Z,14.10
2018-05-04T03:52:33.545Z,14.00
2018-05-04T03:57:48.984Z,14.00
2018-05-04T04:03:03.890Z,14.00
2018-05-04T04:08:09.134Z,14.00
2018-05-04T04:13:13.743Z,14.00
2018-05-04T04:18:16.343Z,14.00
2018-05-04T04:23:25.019Z,14.00
2018-05-04T04:28:27.756Z,14.00
2018-05-04T04:33:31.243Z,13.90
2018-05-04T04:38:34.032Z,13.90
2018-05-04T04:43:36.745Z,14.00
2018-05-04T04:48:39.834Z,14.00
2018-05-04T04:53:42.500Z,14.00
2018-05-04T04:58:45.990Z,14.00
2018-05-04T05:03:49.297Z,14.00
2018-05-04T05:08:52.101Z,14.00
2018-05-04T05:13:56.591Z,14.10
2018-05-04T05:19:01.873Z,14.20
2018-05-04T05:24:05.845Z,14.20
2018-05-04T05:29:10.314Z,14.30
2018-05-04T05:34:25.179Z,14.40
2018-05-04T05:44:40.323Z,14.60
2018-05-04T05:49:47.211Z,14.80
2018-05-04T05:54:50.318Z,15.10
2018-05-04T05:59:56.400Z,15.30
2018-05-04T06:05:03.647Z,15.60
2018-05-04T06:10:07.565Z,15.80
2018-05-04T06:15:14.197Z,16.10
2018-05-04T06:25:35.119Z,16.60
2018-05-04T06:30:41.582Z,16.80
2018-05-04T06:35:47.321Z,17.00
2018-05-04T06:40:53.860Z,17.30
2018-05-04T06:46:01.029Z,17.50
2018-05-04T06:51:07.458Z,17.80
2018-05-04T06:56:11.713Z,18.00
2018-05-04T07:01:18.482Z,18.30
2018-05-04T07:06:27.676Z,18.50
2018-05-04T07:11:46.634Z,19.10
2018-05-04T07:16:51.013Z,19.10
2018-05-04T07:21:55.585Z,19.30
2018-05-04T07:27:04.861Z,19.50
2018-05-04T07:32:12.295Z,19.70
2018-05-04T07:37:17.847Z,20.00
2018-05-04T07:42:21.391Z,20.30
2018-05-04T07:52:35.462Z,20.70
2018-05-04T07:57:42.673Z,20.90
2018-05-04T08:02:49.157Z,21.10
2018-05-04T08:07:52.883Z,21.30
2018-05-04T08:12:58.914Z,21.50
2018-05-04T08:18:06.737Z,21.70
2018-05-04T08:28:41.250Z,22.10
2018-05-04T08:33:49.350Z,22.30
2018-05-04T08:39:01.208Z,22.50
2018-05-04T08:54:44.216Z,23.10
2018-05-04T08:59:59.290Z,23.30
2018-05-04T09:05:02.798Z,23.40
2018-05-04T09:10:13.995Z,23.60
2018-05-04T09:15:22.530Z,23.60
2018-05-04T09:20:33.262Z,23.70
2018-05-04T09:25:43.956Z,23.90
2018-05-04T09:30:57.093Z,23.90
2018-05-04T09:36:05.736Z,23.80
2018-05-04T09:46:25.998Z,23.70
2018-05-04T09:51:29.794Z,23.50
2018-05-04T10:01:44.779Z,23.30
2018-05-04T10:06:55.239Z,23.10
2018-05-04T10:12:03.465Z,23.20
2018-05-04T10:17:09.062Z,23.30
2018-05-04T10:22:13.819Z,23.60
2018-05-04T10:32:39.665Z,24.10
2018-05-04T10:37:52.719Z,24.10
2018-05-04T10:43:03.061Z,24.30
2018-05-04T10:53:30.106Z,24.60
2018-05-04T10:58:37.726Z,24.80
2018-05-04T11:03:47.414Z,25.00
2018-05-04T11:08:59.048Z,25.10
2018-05-04T11:14:10.590Z,25.50
2018-05-04T11:24:27.392Z,25.70
2018-05-04T11:29:32.300Z,25.80
2018-05-04T11:45:20.232Z,26.30
2018-05-04T11:55:45.069Z,26.50
2018-05-04T12:00:51.482Z,26.60
2018-05-04T12:06:23.634Z,26.60
2018-05-04T12:11:28.845Z,26.60
2018-05-04T12:16:40.240Z,26.70
2018-05-04T12:27:04.644Z,26.60
2018-05-04T12:32:15.251Z,26.70
2018-05-04T12:37:20.186Z,26.70
2018-05-04T12:42:29.251Z,26.80
2018-05-04T12:52:47.727Z,26.80
2018-05-04T12:57:55.516Z,26.90
2018-05-04T13:03:01.122Z,26.90
2018-05-04T13:08:11.699Z,27.00
2018-05-04T13:13:19.836Z,27.00
2018-05-04T13:18:30.258Z,27.00
2018-05-04T13:28:52.889Z,27.10
2018-05-04T13:34:01.008Z,27.10
2018-05-04T13:39:05.821Z,27.10
2018-05-04T13:44:17.049Z,27.10
2018-05-04T13:49:27.633Z,27.00
2018-05-04T13:54:31.687Z,27.00
2018-05-04T13:59:38.860Z,27.00
2018-05-04T14:04:46.621Z,27.00
2018-05-04T14:09:53.427Z,27.00
2018-05-04T14:15:09.572Z,27.00
2018-05-04T14:20:17.566Z,26.80
2018-05-04T14:25:25.856Z,26.80
2018-05-04T14:30:29.362Z,26.80
2018-05-04T14:35:35.513Z,26.70
2018-05-04T14:40:42.006Z,26.60
2018-05-04T14:45:48.879Z,26.50
2018-05-04T14:51:03.152Z,26.40
2018-05-04T14:56:18.859Z,26.20
2018-05-04T15:01:40.373Z,26.10
2018-05-04T15:06:46.640Z,26.10
2018-05-04T15:11:59.995Z,25.90
2018-05-04T15:22:18.122Z,25.80
2018-05-04T15:27:28.431Z,25.60
2018-05-04T15:32:33.136Z,25.50
2018-05-04T15:37:42.686Z,25.20
2018-05-04T15:42:50.593Z,25.20
2018-05-04T15:48:01.488Z,25.10
2018-05-04T15:53:09.997Z,25.00
2018-05-04T15:58:16.143Z,24.90
2018-05-04T16:03:22.619Z,24.80
2018-05-04T16:08:30.070Z,24.70
2018-05-04T16:13:37.249Z,24.60
2018-05-04T16:18:46.502Z,24.50
2018-05-04T16:29:01.892Z,24.30
2018-05-04T16:34:09.528Z,24.20
2018-05-04T16:39:21.405Z,24.00
2018-05-04T16:44:26.245Z,23.90
2018-05-04T16:49:35.542Z,23.80
2018-05-04T16:54:45.551Z,23.70
2018-05-04T16:59:52.947Z,23.60
2018-05-04T17:05:00.568Z,23.50
2018-05-04T17:15:19.102Z,23.20
2018-05-04T17:20:27.549Z,23.10
2018-05-04T17:25:32.253Z,23.00
2018-05-04T17:30:42.190Z,22.90
2018-05-04T17:35:45.585Z,22.80
2018-05-04T17:46:04.762Z,22.60
2018-05-04T17:51:09.854Z,22.50
2018-05-04T18:01:33.856Z,22.40
2018-05-04T18:06:42.936Z,22.20
2018-05-04T18:11:50.451Z,22.20
2018-05-04T18:22:08.159Z,22.00
2018-05-04T18:27:16.558Z,21.80
2018-05-04T18:32:23.446Z,21.70
2018-05-04T18:37:32.730Z,21.60
2018-05-04T18:42:39.272Z,21.50
2018-05-04T18:47:44.231Z,21.30
2018-05-04T18:52:51.203Z,21.20
2018-05-04T18:58:02.169Z,21.10
2018-05-04T19:03:11.908Z,21.00
2018-05-04T19:08:18.301Z,20.70
2018-05-04T19:13:22.718Z,20.70
2018-05-04T19:18:26.651Z,20.60
2018-05-04T19:23:30.476Z,20.50
2018-05-04T19:28:33.998Z,20.40
2018-05-04T19:33:37.611Z,20.30
2018-05-04T19:38:40.786Z,20.30
2018-05-04T19:43:45.780Z,20.10
2018-05-04T19:48:49.226Z,20.00
2018-05-04T19:53:54.125Z,19.90
2018-05-04T19:58:57.172Z,19.90
2018-05-04T20:04:01.437Z,19.70
2018-05-04T20:09:04.873Z,19.60
2018-05-04T20:14:08.002Z,19.50
2018-05-04T20:19:11.189Z,19.40
2018-05-04T20:24:15.187Z,19.40
2018-05-04T20:29:19.250Z,19.20
2018-05-04T20:34:25.422Z,19.20
2018-05-04T20:39:28.404Z,19.00
2018-05-04T20:44:31.913Z,19.00
2018-05-04T20:49:35.736Z,18.90
2018-05-04T20:54:40.052Z,18.80
2018-05-04T21:04:50.464Z,18.60
2018-05-04T21:09:55.037Z,18.50
2018-05-04T21:20:06.296Z,18.30
2018-05-04T21:25:10.639Z,18.30
2018-05-04T21:30:14.351Z,18.20
2018-05-04T21:35:18.917Z,18.10
2018-05-04T21:50:36.243Z,17.90
2018-05-04T21:55:40.633Z,17.80
2018-05-04T22:00:44.275Z,17.70
2018-05-04T22:05:51.089Z,17.70
2018-05-04T22:10:55.059Z,17.60
2018-05-04T22:15:58.444Z,17.60
2018-05-04T22:21:03.284Z,17.50
2018-05-04T22:26:06.978Z,17.40
2018-05-04T22:31:10.195Z,17.40
2018-05-04T22:36:16.669Z,17.40
2018-05-04T22:41:20.982Z,17.40
2018-05-04T22:46:25.637Z,17.30
2018-05-04T22:51:30.378Z,17.30
2018-05-04T22:56:35.503Z,17.20
2018-05-04T23:01:43.199Z,17.20
2018-05-04T23:06:47.557Z,17.10
2018-05-04T23:11:52.876Z,17.00
2018-05-04T23:16:56.760Z,17.00
2018-05-04T23:22:01.120Z,17.00
2018-05-04T23:27:05.531Z,16.90
2018-05-04T23:32:10.444Z,16.80
2018-05-04T23:37:15.603Z,16.80
2018-05-04T23:42:18.551Z,16.80
2018-05-04T23:47:22.437Z,16.70
2018-05-04T23:52:27.410Z,16.60
2018-05-04T23:57:32.635Z,16.60
